Daily Reports
[Refresh to Update]

Barometric Pressure Shown is Corrected to Site Pressure


Today's History

2/22/19
Time         Wind Dir   Wind Spd  Wind Gust   Humidity       Temp   Tot Rain   Barom SL   24HrRain   RainRate  MonthRain
                            mph        mph          %         F         in         in         in      in/hr         in
12:00am           228        1.0        2.0       83.0       33.9       4.20      29.13       0.00      0.000       3.35
12:10am           237        3.0        3.0       84.0       33.5       4.20      29.13       0.00      0.000       3.35
12:20am           250        2.0        3.0       85.0       33.0       4.20      29.13       0.00      0.000       3.35
12:30am           270        3.0        3.0       86.0       32.5       4.20      29.13       0.00      0.000       3.35
12:40am           269        3.0        3.0       87.0       32.2       4.20      29.13       0.00      0.000       3.35
12:50am           271        2.0        2.0       87.0       32.4       4.20      29.13       0.00      0.000       3.35
1:00am            271        2.0        2.0       86.0       32.7       4.20      29.13       0.00      0.000       3.35
1:10am            271        0.0        0.0       86.0       32.5       4.20      29.13       0.00      0.000       3.35
1:20am            284        2.0        2.0       86.0       32.1       4.20      29.14       0.00      0.000       3.35
1:30am            284        2.0        2.0       88.0       31.9       4.20      29.14       0.00      0.000       3.35
1:40am            284        3.0        3.0       88.0       31.8       4.20      29.14       0.00      0.000       3.35
1:50am            284        3.0        3.0       88.0       31.6       4.20      29.14       0.00      0.000       3.35
2:00am            285        2.0        4.0       89.0       31.2       4.20      29.15       0.00      0.000       3.35
2:10am            281        1.0        2.0       89.0       31.1       4.20      29.15       0.00      0.000       3.35
2:20am            273        2.0        2.0       90.0       31.0       4.20      29.15       0.00      0.000       3.35
2:30am            259        2.0        2.0       90.0       31.1       4.20      29.16       0.00      0.000       3.35
2:40am            259        2.0        2.0       90.0       31.1       4.20      29.15       0.00      0.000       3.35
2:50am            259        0.0        0.0       90.0       30.8       4.20      29.15       0.00      0.000       3.35
3:00am            259        1.0        1.0       90.0       30.6       4.20      29.15       0.00      0.000       3.35
3:10am            259        2.0        2.0       91.0       30.6       4.20      29.16       0.00      0.000       3.35
3:20am            226        1.0        2.0       90.0       30.4       4.20      29.16       0.00      0.000       3.35
3:30am            266        2.0        3.0       91.0       29.7       4.20      29.16       0.00      0.000       3.35
3:40am            283        4.0        4.0       92.0       29.5       4.20      29.16       0.00      0.000       3.35
3:50am            283        3.0        4.0       92.0       29.4       4.20      29.16       0.00      0.000       3.35
4:00am            282        4.0        6.0       92.0       29.9       4.20      29.16       0.00      0.000       3.35
4:10am            289        5.0        7.0       91.0       30.3       4.20      29.17       0.00      0.000       3.35
4:20am            286        6.0        7.0       90.0       30.4       4.20      29.16       0.00      0.000       3.35
4:30am            287        7.0        8.0       90.0       30.5       4.20      29.16       0.00      0.000       3.35
4:40am            303        5.0        7.0       90.0       30.8       4.20      29.17       0.00      0.000       3.35
4:50am            304        7.0       11.0       89.0       31.0       4.20      29.17       0.00      0.000       3.35
5:00am            298       10.0       11.0       88.0       31.2       4.20      29.18       0.00      0.000       3.35
5:10am            298       10.0       10.0       88.0       31.1       4.20      29.18       0.00      0.000       3.35
5:20am            304        8.0        9.0       87.0       31.2       4.20      29.18       0.00      0.000       3.35
5:30am            298        7.0        8.0       88.0       30.9       4.20      29.18       0.00      0.000       3.35
5:40am            313        4.0        8.0       88.0       30.7       4.20      29.18       0.00      0.000       3.35
5:50am            304        5.0        7.0       87.0       30.5       4.20      29.19       0.00      0.000       3.35
6:00am            302        7.0        9.0       86.0       30.5       4.20      29.19       0.00      0.000       3.35
6:10am            304        7.0        8.0       86.0       30.3       4.20      29.20       0.00      0.000       3.35
6:20am            299        7.0        9.0       86.0       30.1       4.20      29.21       0.00      0.000       3.35
6:30am            298        9.0        9.0       86.0       30.1       4.20      29.21       0.00      0.000       3.35
6:40am            301        9.0       10.0       86.0       30.0       4.20      29.22       0.00      0.000       3.35
6:50am            288        8.0        9.0       85.0       29.9       4.20      29.23       0.00      0.000       3.35
7:00am            314        4.0        7.0       85.0       29.8       4.20      29.22       0.00      0.000       3.35
7:10am            296        5.0        9.0       85.0       29.7       4.20      29.23       0.00      0.000       3.35
7:20am            313        6.0        6.0       85.0       29.6       4.20      29.22       0.00      0.000       3.35
7:30am            306        7.0        7.0       85.0       29.4       4.20      29.23       0.00      0.000       3.35
7:40am            313        5.0        6.0       85.0       29.3       4.20      29.23       0.00      0.000       3.35
7:50am            293        8.0        9.0       85.0       29.4       4.20      29.24       0.00      0.000       3.35
8:00am            307        5.0        5.0       84.0       29.4       4.20      29.23       0.00      0.000       3.35
8:10am            315        8.0        8.0       85.0       29.5       4.20      29.24       0.00      0.000       3.35
8:20am            315        6.0        9.0       84.0       29.7       4.20      29.24       0.00      0.000       3.35
8:30am            300        8.0        9.0       84.0       29.8       4.20      29.25       0.00      0.000       3.35
8:40am            304        5.0        5.0       84.0       30.0       4.20      29.25       0.00      0.000       3.35
8:50am            340        4.0        5.0       84.0       30.2       4.20      29.25       0.00      0.000       3.35
9:00am            338        6.0        8.0       84.0       30.3       4.20      29.25       0.00      0.000       3.35
9:10am            355        4.0        6.0       83.0       30.5       4.20      29.26       0.00      0.000       3.35
9:20am            312        8.0        9.0       82.0       30.7       4.20      29.26       0.00      0.000       3.35
9:30am            327        3.0        5.0       82.0       31.0       4.20      29.27       0.00      0.000       3.35
9:40am            318        4.0        6.0       82.0       31.2       4.20      29.27       0.00      0.000       3.35
9:50am            333       10.0       10.0       82.0       31.3       4.20      29.27       0.00      0.000       3.35
10:00am           326        4.0        6.0       81.0       31.5       4.20      29.28       0.00      0.000       3.35
10:10am           350        6.0        9.0       81.0       31.5       4.20      29.27       0.00      0.000       3.35
10:20am            30        3.0        7.0       81.0       31.7       4.20      29.27       0.00      0.000       3.35
10:30am            36        9.0        9.0       81.0       31.8       4.20      29.27       0.00      0.000       3.35
10:40am           355        3.0        5.0       82.0       32.0       4.20      29.27       0.00      0.000       3.35
10:50am            34        5.0        7.0       81.0       32.5       4.20      29.28       0.00      0.000       3.35
11:00am            34        6.0        8.0       80.0       32.6       4.20      29.27       0.00      0.000       3.35
11:10am            17        9.0       10.0       80.0       32.8       4.20      29.26       0.00      0.000       3.35
11:20am            32        6.0        8.0       80.0       32.9       4.20      29.26       0.00      0.000       3.35
11:30am            69        5.0        7.0       80.0       33.3       4.20      29.26       0.00      0.000       3.35
11:40am            51        5.0        6.0       79.0       33.4       4.20      29.27       0.00      0.000       3.35
11:50am           355        3.0        7.0       80.0       33.9       4.20      29.28       0.00      0.000       3.35
12:00pm           360        3.0        3.0       78.0       34.1       4.20      29.27       0.00      0.000       3.35
12:10pm            32        2.0        3.0       77.0       34.2       4.20      29.28       0.00      0.000       3.35
12:20pm           350        4.0        4.0       78.0       34.5       4.20      29.28       0.00      0.000       3.35
12:30pm            42        4.0        5.0       77.0       34.7       4.20      29.28       0.00      0.000       3.35
12:40pm            55        0.0        2.0       76.0       34.8       4.20      29.27       0.00      0.000       3.35
12:50pm           341        4.0        5.0       77.0       35.1       4.20      29.27       0.00      0.000       3.35
1:00pm             13        2.0        4.0       76.0       35.3       4.20      29.26       0.00      0.000       3.35
1:10pm             59        4.0        5.0       76.0       35.3       4.20      29.25       0.00      0.000       3.35
1:20pm            350        4.0        5.0       76.0       35.5       4.20      29.25       0.00      0.000       3.35
1:30pm              5        4.0        4.0       77.0       35.5       4.20      29.25       0.00      0.000       3.35
1:40pm            360        4.0        4.0       76.0       35.6       4.20      29.24       0.00      0.000       3.35
1:50pm              5        4.0        4.0       76.0       35.8       4.20      29.24       0.00      0.000       3.35
2:00pm              5        3.0        4.0       75.0       35.9       4.20      29.23       0.00      0.000       3.35
2:10pm             20        4.0        4.0       75.0       35.9       4.20      29.22       0.00      0.000       3.35
2:20pm             13        5.0        7.0       74.0       36.0       4.20      29.23       0.00      0.000       3.35
2:30pm             20        5.0        5.0       75.0       35.9       4.20      29.22       0.00      0.000       3.35
2:40pm             31        3.0        4.0       75.0       36.1       4.20      29.22       0.00      0.000       3.35
2:50pm             21        4.0        5.0       76.0       36.2       4.20      29.22       0.00      0.000       3.35
3:00pm             19        7.0        7.0       77.0       36.4       4.20      29.21       0.00      0.000       3.35
3:10pm             11        5.0        8.0       76.0       36.5       4.20      29.21       0.00      0.000       3.35
3:20pm             52        4.0        5.0       75.0       36.6       4.20      29.21       0.00      0.000       3.35
3:30pm            344        5.0        6.0       76.0       36.5       4.20      29.21       0.00      0.000       3.35
3:40pm              5        3.0        5.0       75.0       36.6       4.20      29.22       0.00      0.000       3.35
3:50pm            340        9.0        9.0       77.0       36.7       4.20      29.21       0.00      0.000       3.35
4:00pm             22        8.0        8.0       77.0       36.6       4.20      29.21       0.00      0.000       3.35
4:10pm            351        4.0        5.0       77.0       36.5       4.20      29.21       0.00      0.000       3.35
4:20pm            355        5.0        7.0       77.0       36.6       4.20      29.21       0.00      0.000       3.35
4:30pm            338        5.0        5.0       77.0       36.6       4.20      29.21       0.00      0.000       3.35
4:40pm              9        4.0        5.0       77.0       36.5       4.20      29.21       0.00      0.000       3.35
4:50pm              9        3.0        3.0       77.0       36.4       4.20      29.21       0.00      0.000       3.35
5:00pm            360        1.0        3.0       77.0       36.3       4.20      29.21       0.00      0.000       3.35
5:10pm             18        2.0        2.0       78.0       36.2       4.20      29.21       0.00      0.000       3.35
5:20pm             63        3.0        5.0       78.0       36.2       4.20      29.21       0.00      0.000       3.35
5:30pm            339        4.0        4.0       78.0       36.1       4.20      29.22       0.00      0.000       3.35
5:40pm            346        1.0        2.0       78.0       35.9       4.20      29.22       0.00      0.000       3.35
5:50pm            346        2.0        3.0       78.0       35.7       4.20      29.22       0.00      0.000       3.35
6:00pm            315        3.0        4.0       81.0       35.1       4.20      29.22       0.00      0.000       3.35
6:10pm            310        3.0        3.0       82.0       34.7       4.20      29.22       0.00      0.000       3.35
6:20pm            315        2.0        3.0       81.0       34.8       4.20      29.22       0.00      0.000       3.35
6:30pm            309        3.0        4.0       81.0       34.7       4.20      29.21       0.00      0.000       3.35
6:40pm            299        3.0        4.0       82.0       34.4       4.20      29.22       0.00      0.000       3.35
6:50pm            323        3.0        4.0       83.0       33.9       4.20      29.22       0.00      0.000       3.35
7:00pm            311        3.0        3.0       82.0       33.9       4.20      29.21       0.00      0.000       3.35
7:10pm            319        2.0        2.0       81.0       34.1       4.20      29.22       0.00      0.000       3.35
7:20pm            318        1.0        2.0       82.0       33.9       4.20      29.22       0.00      0.000       3.35
7:30pm            298        2.0        2.0       82.0       33.8       4.20      29.23       0.00      0.000       3.35
7:40pm            297        1.0        2.0       83.0       33.3       4.20      29.23       0.00      0.000       3.35
7:50pm            336        2.0        2.0       83.0       33.2       4.20      29.23       0.00      0.000       3.35
8:00pm            340        0.0        1.0       83.0       33.1       4.20      29.22       0.00      0.000       3.35
8:10pm            336        3.0        3.0       83.0       33.1       4.20      29.22       0.00      0.000       3.35
8:20pm            340        3.0        3.0       83.0       33.2       4.20      29.21       0.00      0.000       3.35
8:30pm            323        1.0        2.0       83.0       33.1       4.20      29.22       0.00      0.000       3.35
8:40pm            342        3.0        3.0       84.0       32.7       4.20      29.21       0.00      0.000       3.35
8:50pm            342        3.0        3.0       85.0       32.4       4.20      29.22       0.00      0.000       3.35
9:00pm            324        3.0        3.0       85.0       32.3       4.20      29.22       0.00      0.000       3.35
9:10pm            334        2.0        4.0       85.0       32.4       4.20      29.21       0.00      0.000       3.35
9:20pm            342        2.0        2.0       85.0       32.7       4.20      29.21       0.00      0.000       3.35
9:30pm            345        4.0        4.0       83.0       33.2       4.20      29.20       0.00      0.000       3.35
9:40pm            335        3.0        5.0       83.0       33.3       4.20      29.20       0.00      0.000       3.35
9:50pm            346        2.0        3.0       83.0       33.2       4.20      29.20       0.00      0.000       3.35
10:00pm           332        4.0        4.0       84.0       32.9       4.20      29.20       0.00      0.000       3.35
10:10pm           329        1.0        2.0       84.0       32.9       4.20      29.20       0.00      0.000       3.35
10:20pm           327        3.0        3.0       84.0       32.9       4.20      29.20       0.00      0.000       3.35
10:30pm           333        2.0        3.0       84.0       32.9       4.20      29.20       0.00      0.000       3.35

 


Yesterday's History

2/21/19
Time         Wind Dir   Wind Spd  Wind Gust   Humidity       Temp   Tot Rain   Barom SL   24HrRain   RainRate  MonthRain
                            mph        mph          %         F         in         in         in      in/hr         in
12:00am           190       20.0       22.0       88.0       38.7       4.20      28.77       0.67      0.000       3.35
12:10am           198        9.0       16.0       88.0       38.6       4.20      28.77       0.67      0.000       3.35
12:20am           209       13.0       14.0       89.0       38.2       4.20      28.77       0.67      0.000       3.35
12:30am           208        6.0        9.0       90.0       37.9       4.20      28.78       0.67      0.000       3.35
12:40am           229       19.0       22.0       89.0       37.4       4.20      28.78       0.67      0.000       3.35
12:50am           215       20.0       20.0       89.0       37.0       4.20      28.80       0.67      0.000       3.35
1:00am            229        8.0       13.0       87.0       36.6       4.20      28.80       0.67      0.000       3.35
1:10am            211       13.0       20.0       86.0       36.4       4.20      28.81       0.67      0.000       3.35
1:20am            193       15.0       20.0       85.0       36.5       4.20      28.81       0.67      0.000       3.35
1:30am            218        8.0       11.0       84.0       36.5       4.20      28.81       0.67      0.000       3.35
1:40am            187       10.0       10.0       85.0       36.4       4.20      28.82       0.67      0.000       3.35
1:50am            207       13.0       17.0       85.0       36.2       4.20      28.82       0.67      0.000       3.35
2:00am            219       16.0       16.0       84.0       36.2       4.20      28.83       0.67      0.000       3.35
2:10am            177       15.0       24.0       84.0       36.1       4.20      28.84       0.67      0.000       3.35
2:20am            169       11.0       14.0       84.0       36.1       4.20      28.85       0.67      0.000       3.35
2:30am            207        7.0       13.0       85.0       35.9       4.20      28.85       0.67      0.000       3.35
2:40am            207       10.0       11.0       86.0       35.8       4.20      28.85       0.67      0.000       3.35
2:50am            205       15.0       29.0       84.0       35.8       4.20      28.85       0.67      0.000       3.35
3:00am            229       14.0       21.0       83.0       35.7       4.20      28.86       0.67      0.000       3.35
3:10am            229       14.0       19.0       83.0       35.6       4.20      28.85       0.67      0.000       3.35
3:20am            223       10.0       10.0       83.0       35.5       4.20      28.86       0.67      0.000       3.35
3:30am            212       16.0       21.0       83.0       35.2       4.20      28.86       0.67      0.000       3.35
3:40am            217       15.0       21.0       81.0       35.0       4.20      28.86       0.67      0.000       3.35
3:50am            215       18.0       18.0       81.0       35.0       4.20      28.87       0.67      0.000       3.35
4:00am            207       10.0       12.0       81.0       34.9       4.20      28.87       0.67      0.000       3.35
4:10am            207        8.0        8.0       82.0       34.8       4.20      28.87       0.67      0.000       3.35
4:20am            229       16.0       16.0       81.0       34.9       4.20      28.87       0.67      0.000       3.35
4:30am            231       15.0       16.0       81.0       34.9       4.20      28.87       0.67      0.000       3.35
4:40am            224       12.0       15.0       80.0       34.8       4.20      28.88       0.67      0.000       3.35
4:50am            208       15.0       15.0       79.0       35.1       4.20      28.88       0.67      0.000       3.35
5:00am            196       14.0       16.0       80.0       35.1       4.20      28.88       0.67      0.000       3.35
5:10am            202       11.0       12.0       80.0       35.1       4.20      28.89       0.67      0.000       3.35
5:20am            206        9.0       13.0       80.0       35.1       4.20      28.91       0.67      0.000       3.35
5:30am            220        9.0        9.0       80.0       35.0       4.20      28.90       0.67      0.000       3.35
5:40am            211       14.0       14.0       80.0       35.0       4.20      28.90       0.67      0.000       3.35
5:50am            209       10.0       12.0       80.0       34.9       4.20      28.90       0.67      0.000       3.35
6:00am            203        7.0        9.0       81.0       34.8       4.20      28.90       0.67      0.000       3.35
6:10am            197        7.0       10.0       80.0       34.7       4.20      28.90       0.67      0.000       3.35
6:20am            196       10.0       14.0       79.0       34.7       4.20      28.90       0.67      0.000       3.35
6:30am            192        9.0       10.0       79.0       34.6       4.20      28.91       0.67      0.000       3.35
6:40am            208        8.0       12.0       80.0       34.5       4.20      28.91       0.67      0.000       3.35
6:50am            182        8.0       10.0       80.0       34.4       4.20      28.91       0.67      0.000       3.35
7:00am            203       10.0       10.0       80.0       34.3       4.20      28.91       0.67      0.000       3.35
7:10am            186        8.0        8.0       81.0       34.2       4.20      28.92       0.67      0.000       3.35
7:20am            232        7.0       10.0       80.0       34.1       4.20      28.93       0.67      0.000       3.35
7:30am            212        5.0        5.0       80.0       34.1       4.20      28.94       0.67      0.000       3.35
7:40am            188        8.0       11.0       80.0       34.2       4.20      28.94       0.67      0.000       3.35
7:50am            187        8.0        8.0       81.0       34.2       4.20      28.95       0.67      0.000       3.35
8:00am            172        6.0        7.0       81.0       34.2       4.20      28.95       0.67      0.000       3.35
8:10am            180        9.0       13.0       81.0       34.2       4.20      28.96       0.67      0.000       3.35
8:20am            215       10.0       10.0       80.0       34.2       4.20      28.96       0.67      0.000       3.35
8:30am            174        8.0        9.0       80.0       34.4       4.20      28.97       0.67      0.000       3.35
8:40am            178       13.0       14.0       80.0       34.4       4.20      28.98       0.67      0.000       3.35
8:50am            222        9.0       11.0       79.0       34.5       4.20      28.98       0.67      0.000       3.35
9:00am            203       12.0       17.0       79.0       34.5       4.20      29.00       0.67      0.000       3.35
9:10am            163        8.0        9.0       80.0       34.4       4.20      29.00       0.67      0.000       3.35
9:20am            198        9.0       12.0       80.0       34.4       4.20      29.00       0.67      0.000       3.35
9:30am            211        8.0        9.0       79.0       34.8       4.20      29.01       0.67      0.000       3.35
9:40am            200        9.0       13.0       78.0       34.8       4.20      29.01       0.67      0.000       3.35
9:50am            182       11.0       14.0       78.0       34.8       4.20      29.02       0.67      0.000       3.35
10:00am           176        7.0       14.0       78.0       35.0       4.20      29.01       0.67      0.000       3.35
10:10am           181        9.0       13.0       78.0       35.3       4.20      29.02       0.67      0.000       3.35
10:20am           200       11.0       12.0       78.0       35.4       4.20      29.02       0.67      0.000       3.35
10:30am           200       11.0       13.0       78.0       34.9       4.20      29.02       0.67      0.000       3.35
10:40am           161       14.0       17.0       78.0       35.9       4.20      29.03       0.67      0.000       3.35
10:50am           184       15.0       15.0       77.0       35.9       4.20      29.03       0.67      0.000       3.35
11:00am           217       11.0       13.0       77.0       35.9       4.20      29.03       0.67      0.000       3.35
11:10am           181       14.0       14.0       77.0       35.8       4.20      29.03       0.67      0.000       3.35
11:20am           162       16.0       18.0       75.0       36.6       4.20      29.03       0.67      0.000       3.35
11:30am           217        7.0       11.0       75.0       36.3       4.20      29.02       0.67      0.000       3.35
11:40am           177       11.0       12.0       76.0       36.6       4.20      29.03       0.67      0.000       3.35
11:50am           195        8.0       12.0       73.0       36.5       4.20      29.04       0.67      0.000       3.35
12:00pm           180       14.0       15.0       75.0       36.5       4.20      29.03       0.67      0.000       3.35
12:10pm           203       11.0       12.0       74.0       36.8       4.20      29.04       0.65      0.000       3.35
12:20pm           173       15.0       18.0       75.0       36.9       4.20      29.04       0.62      0.000       3.35
12:30pm           195       13.0       13.0       74.0       37.1       4.20      29.03       0.59      0.000       3.35
12:40pm           199        9.0       10.0       73.0       37.1       4.20      29.03       0.57      0.000       3.35
12:50pm           186       13.0       13.0       72.0       37.4       4.20      29.03       0.54      0.000       3.35
1:00pm            178       13.0       15.0       72.0       37.5       4.20      29.03       0.51      0.000       3.35
1:10pm            197       12.0       15.0       73.0       37.9       4.20      29.03       0.48      0.000       3.35
1:20pm            189       11.0       13.0       73.0       37.9       4.20      29.02       0.45      0.000       3.35
1:30pm            169        6.0        7.0       72.0       38.1       4.20      29.02       0.42      0.000       3.35
1:40pm            173       10.0       12.0       72.0       38.8       4.20      29.02       0.39      0.000       3.35
1:50pm            211        9.0       13.0       69.0       39.0       4.20      29.01       0.36      0.000       3.35
2:00pm            200       12.0       12.0       69.0       38.9       4.20      29.01       0.32      0.000       3.35
2:10pm            168       11.0       12.0       70.0       39.4       4.20      29.01       0.30      0.000       3.35
2:20pm            170       12.0       15.0       69.0       39.6       4.20      29.01       0.27      0.000       3.35
2:30pm            163        8.0       11.0       69.0       39.6       4.20      29.01       0.24      0.000       3.35
2:40pm            166       11.0       11.0       69.0       38.8       4.20      29.02       0.22      0.000       3.35
2:50pm            169       11.0       11.0       70.0       38.7       4.20      29.01       0.20      0.000       3.35
3:00pm            214        9.0       10.0       71.0       39.0       4.20      29.02       0.18      0.000       3.35
3:10pm            208        8.0        9.0       68.0       39.0       4.20      29.02       0.16      0.000       3.35
3:20pm            217       11.0       11.0       70.0       38.6       4.20      29.02       0.16      0.000       3.35
3:30pm            189        9.0        9.0       69.0       38.6       4.20      29.03       0.14      0.000       3.35
3:40pm            200       12.0       12.0       68.0       38.7       4.20      29.04       0.12      0.000       3.35
3:50pm            184        8.0       12.0       67.0       38.7       4.20      29.04       0.09      0.000       3.35
4:00pm            176       12.0       12.0       70.0       38.9       4.20      29.04       0.06      0.000       3.35
4:10pm            193       10.0       10.0       69.0       38.8       4.20      29.04       0.06      0.000       3.35
4:20pm            196        6.0       11.0       70.0       38.7       4.20      29.05       0.05      0.000       3.35
4:30pm            180        8.0       10.0       71.0       38.6       4.20      29.05       0.05      0.000       3.35
4:40pm            173       10.0       11.0       72.0       38.5       4.20      29.05       0.04      0.000       3.35
4:50pm            210        7.0        9.0       73.0       38.4       4.20      29.05       0.03      0.000       3.35
5:00pm            179       10.0       13.0       72.0       38.2       4.20      29.06       0.03      0.000       3.35
5:10pm            192        4.0        4.0       73.0       37.9       4.20      29.06       0.02      0.000       3.35
5:20pm            174        6.0        7.0       74.0       37.7       4.20      29.05       0.02      0.000       3.35
5:30pm            211        4.0        6.0       74.0       37.4       4.20      29.06       0.02      0.000       3.35
5:40pm            208        5.0        7.0       75.0       37.2       4.20      29.06       0.02      0.000       3.35
5:50pm            215        6.0        6.0       75.0       37.0       4.20      29.05       0.02      0.000       3.35
6:00pm            226        5.0        6.0       75.0       36.8       4.20      29.05       0.02      0.000       3.35
6:10pm            232        5.0        7.0       77.0       36.4       4.20      29.05       0.01      0.000       3.35
6:20pm            205        7.0        7.0       77.0       36.2       4.20      29.07       0.01      0.000       3.35
6:30pm            207        8.0        8.0       77.0       36.3       4.20      29.07       0.01      0.000       3.35
6:40pm            212        5.0        6.0       78.0       36.2       4.20      29.07       0.01      0.000       3.35
6:50pm            207        3.0        5.0       78.0       36.1       4.20      29.07       0.00      0.000       3.35
7:00pm            215        5.0        5.0       78.0       35.9       4.20      29.07       0.00      0.000       3.35
7:10pm            223        3.0        5.0       79.0       35.9       4.20      29.08       0.00      0.000       3.35
7:20pm            225        5.0        5.0       80.0       35.7       4.20      29.08       0.00      0.000       3.35
7:30pm            236        4.0        5.0       81.0       35.3       4.20      29.09       0.00      0.000       3.35
7:40pm            242        5.0        5.0       81.0       35.3       4.20      29.08       0.00      0.000       3.35
7:50pm            227        5.0        8.0       80.0       35.5       4.20      29.08       0.00      0.000       3.35
8:00pm            244        7.0        8.0       81.0       35.5       4.20      29.08       0.00      0.000       3.35
8:10pm            253        4.0        5.0       81.0       35.3       4.20      29.09       0.00      0.000       3.35
8:20pm            251        5.0        5.0       82.0       35.0       4.20      29.09       0.00      0.000       3.35
8:30pm            269        3.0        3.0       81.0       34.9       4.20      29.08       0.00      0.000       3.35
8:40pm            261        4.0        5.0       81.0       34.9       4.20      29.09       0.00      0.000       3.35
8:49pm            242        3.0        4.0       81.0       34.9       4.20      29.10       0.00      0.000       3.35
9:00pm            210        2.0        3.0       82.0       34.9       4.20      29.11       0.00      0.000       3.35
9:10pm            188        1.0        2.0       81.0       34.8       4.20      29.11       0.00      0.000       3.35
9:20pm            232        3.0        3.0       81.0       34.8       4.20      29.11       0.00      0.000       3.35
9:30pm            210        4.0        4.0       81.0       34.9       4.20      29.13       0.00      0.000       3.35
9:40pm            228        4.0        4.0       81.0       34.8       4.20      29.14       0.00      0.000       3.35
9:50pm            221        2.0        2.0       81.0       34.9       4.20      29.14       0.00      0.000       3.35
10:00pm           236        3.0        3.0       82.0       34.8       4.20      29.14       0.00      0.000       3.35
10:10pm           245        7.0        8.0       83.0       34.7       4.20      29.15       0.00      0.000       3.35
10:20pm           240        4.0        5.0       83.0       34.9       4.20      29.15       0.00      0.000       3.35
10:30pm           237        7.0        9.0       82.0       34.9       4.20      29.14       0.00      0.000       3.35
10:40pm           243        6.0        8.0       82.0       34.9       4.20      29.13       0.00      0.000       3.35
10:50pm           228        6.0        6.0       82.0       34.8       4.20      29.14       0.00      0.000       3.35
11:00pm           232        4.0        6.0       83.0       34.5       4.20      29.14       0.00      0.000       3.35
11:10pm           228        1.0        2.0       83.0       34.3       4.20      29.14       0.00      0.000       3.35
11:20pm           228        1.0        2.0       83.0       34.2       4.20      29.14       0.00      0.000       3.35
11:30pm           228        0.0        0.0       83.0       34.0       4.20      29.13       0.00      0.000       3.35
11:40pm           228        0.0        1.0       83.0       33.9       4.20      29.13       0.00      0.000       3.35
11:50pm           228        2.0        2.0       83.0       33.8       4.20      29.13       0.00      0.000       3.35


NOAA Yearly Report

                  YEARLY CLIMATOLOGICAL SUMMARY FOR 2019
                                        HEAT  COOL        
     MEAN                               DEG   DEG       WIND SPEED       DOM MEAN  MEAN
MON  TEMP  HIGH   DATE     LOW   DATE   DAYS  DAYS RAIN AVG  HI  DATE    DIR BAROM HUM
---------------------------------------------------------------------------------------
1    26.1  59.2   1/8/19  -8.5  1/30/19 1198    0  0.85   4  36  1/19/19  NE 28.95   83
2    31.5  58.3   2/7/19   4.0   2/1/19  735    0  3.35   8  47   2/7/19 SSW 28.94   86
---------------------------------------------------------------------------------------
TOT  28.3  59.2   1/8/19  -8.5  1/30/19 1933    0  4.18   6  47   2/7/19 WNW 28.95   84

HEAT BASE: 65.0
COOL BASE: 65.0


NOAA Monthly Report

                  MONTHLY CLIMATOLOGICAL SUMMARY FOR 2/2019
                                        HEAT  COOL        
     MEAN                               DEG   DEG       WIND SPEED       DOM MEAN  MEAN
DAY  TEMP  HIGH   TIME     LOW   TIME   DAYS  DAYS RAIN AVG  HI  TIME    DIR BAROM HUM
---------------------------------------------------------------------------------------
1    11.5  18.2   3:25pm   4.0  10:14pm   54    0  0.01   2  11  10:23am  SW 29.19   86
2    24.4  37.3   6:52pm   6.7   1:01am   41    0  0.05   4  15   2:56pm WNW 29.07   92
3    39.0  55.8   3:50pm  24.3   4:15am   26    0  0.00   4  16   1:16pm WNW 28.85   87
4    47.7  55.2   1:03pm  39.6   7:21am   17    0  0.06   6  23   1:05pm ESE 28.71   91
5    39.8  52.0  12:51am  34.9   6:19pm   25    0  0.01   5  16   3:43am   W 28.87   97
6    45.4  56.0   3:04pm  34.4   4:08am   20    0  0.48   5  21   4:12am ESE 28.75   97
7    44.3  58.3   8:13pm  33.8  11:59pm   21    0  1.11   8  48   8:24pm ESE 28.66   96
8    20.8  33.9  12:00am  15.6  11:51pm   44    0  0.00  17  38   1:26am SSW 29.19   76
9    17.9  24.9   4:23pm  10.5   6:30am   47    0  0.00   5  24  12:06am WSW 29.64   76
10   24.6  32.0  11:53pm  16.0  12:42am   40    0  0.00   7  17  10:47am   E 29.28   86
11   33.7  35.0   1:15pm  32.0  12:00am   31    0  0.35   4  14  10:08pm   N 28.95   97
12   37.8  47.8   1:23pm  28.1  11:59pm   27    0  0.61  12  40   7:22pm SSW 28.50   94
13   26.8  31.7   4:52pm  22.2   8:00am   38    0  0.00  16  43   3:08am SSW 28.74   80
14   38.0  47.6  11:57pm  28.4  12:00am   27    0  0.00  10  28   2:14pm ESE 28.65   74
15   33.5  47.6  12:00am  23.7  11:57pm   31    0  0.00  12  31   4:03am  SW 28.61   79
16   23.4  26.3   4:00pm  19.4   7:35am   42    0  0.00   9  21   7:07am NNW 28.89   84
17   27.0  30.0  12:53pm  23.3   4:47am   38    0  0.00   7  18   9:05am NNE 28.71   87
18   26.4  29.1   1:15pm  23.1   9:40pm   39    0  0.00   8  20   1:51pm WSW 29.04   89
19   27.2  32.8   1:23pm  18.0   7:44am   38    0  0.00   4  14   5:44pm  NE 29.40   78
20   34.4  43.0   8:06pm  27.3   3:49am   31    0  0.67  11  32  11:22pm ESE 28.85   93
21   36.0  39.7   2:21pm  33.8  11:45pm   29    0  0.00   9  32   2:48am SSW 28.99   79
22   32.8  36.7   3:43pm  29.3   7:30am   29    0  0.00   4  13   4:48am  NW 29.21   83
---------------------------------------------------------------------------------------
TOT  31.5  58.3   2/7/19   4.0   2/1/19  735    0  3.35   8  47   2/7/19 SSW 28.94   86

HEAT BASE: 65.0
COOL BASE: 65.0